Toledo, OH (43613)

3:33 PM EST on February 01, 2015 (GMT -0500)
West Toledo | Change Station
CLOSE
Current Station
Personal Weather Station
Location: Toledo, OH
Elevation: 660 ft
Nearby Weather Stations

Elev 660 ft 41.70 °N, 83.61 °W | Updated 3 minutes ago

Snow
Snow
24.8 °F
Feels Like 20 °F
N
4.0
Wind Variable Wind from SE
Gusts 6.0 mph

Today
High -- | Low -- °F
--% Chance of Precip.
Yesterday
High -- | Low -- °F
Precip. -- in
7:46 AM 5:49 PM
Waxing Gibbous, 96% visible
Pressure 29.84 in
Visibility 0.8 miles
Clouds Overcast 700 ft
Windchill 20 °F
Dew Point 22 °F
Humidity 91%
Rainfall 0.00 in
Snow Depth Not available.
UV 1 out of 12
Pollen .10 out of 12
Air Quality Not available.
Flu Activity Not available.
SPECI KTDZ 011958Z AUTO 06013G20KT 3/4SM -SN BR OVC007 M02/M03 A2984 RMK AO2 P0000 T10171033 TSNO

More Conditions Fewer Conditions

Pressure 29.84 in
Visibility 0.8 miles
Clouds Overcast 700 ft
Windchill 20 °F
Dew Point 22 °F
Humidity 91%
Rainfall 0.00 in
Snow Depth Not available.
UV 1 out of 12
Pollen .10 out of 12
Air Quality Not available.
Flu Activity Not available.
SPECI KTDZ 011958Z AUTO 06013G20KT 3/4SM -SN BR OVC007 M02/M03 A2984 RMK AO2 P0000 T10171033 TSNO

More Conditions Fewer Conditions

10-Day Weather Forecast

Almanac

Astronomy

Feb. 01, 2015 Rise Set
Actual Time
Civil Twilight
Nautical Twilight
Astronomical Twilight
Moon
Length of Visible Light
Length of Day
Tomorrow will be .
, % of the Moon is Illuminated

Today's Extremes

State Highs State Lows

Community

WunderPhotos

Upload Photos

1,792,511 photos uploaded!

WunderBlogs® & News

Nearby

Air Quality

  Air Quality AQ Index Pollutant
Not available.

Snow Depth

Station Depth Elevation

Earthquake Activity

City Distance Mag. Time & Date
Minimum magnitude displayed is 2.5.

Coastal Water Temperatures

Place Temperature

Nearby Weather Stations